METAR AND TAF INFORMATION
METAR FOR LEJR
ADDS - METARS form results

(0230 UTC 28 September 2020)
Data provider http://aviationweather.gov/metar/data/
 
METAR text: LEJR 280230Z AUTO 04003KT CAVOK 14/12 Q1014
Conditions at: LEJR (JEREZ (CIV/MIL) , ES) observed 0230 UTC 28 September 2020
Temperature: 14.0°C (57°F)
Dewpoint: 12.0°C (54°F) [RH = 88%]
Pressure (altimeter): 29.94 inches Hg (1014.0 mb)
Winds: from the NE (40 degrees) at 3 MPH (3 knots; 1.5 m/s)
Visibility: 6 or more miles (10+ km)
Ceiling: ceiling and visibility are OK
Clouds: unknown
Weather: no significant weather observed at this time

METAR text: LEJR 280200Z AUTO 08003KT CAVOK 14/13 Q1014
Conditions at: LEJR (JEREZ (CIV/MIL) , ES) observed 0200 UTC 28 September 2020
Temperature: 14.0°C (57°F)
Dewpoint: 13.0°C (55°F) [RH = 94%]
Pressure (altimeter): 29.94 inches Hg (1014.0 mb)
Winds: from the E (80 degrees) at 3 MPH (3 knots; 1.5 m/s)
Visibility: 6 or more miles (10+ km)
Ceiling: ceiling and visibility are OK
Clouds: unknown
Weather: no significant weather observed at this time

Forecast for: LEJR (JEREZ (CIV/MIL) , ES)
Text: TAF LEJR 272300Z 2800/2824 VRB02KT CAVOK TX32/2815Z TN13/2806Z
Forecast period: 0000 UTC 28 September 2020 to 0000 UTC 29 September 2020
Forecast type: FROM: standard forecast or significant change
Winds: variable direction winds at 2 MPH (2 knots; 1.0 m/s)
Visibility: 6 or more miles (10+ km)
Ceiling: unknown
Clouds: missing
Weather: no significant weather forecast for this period
Text: TEMPO 2816/2819 18010KT
Forecast period: 1600 to 1900 UTC 28 September 2020
Forecast type: TEMPORARY: The following changes expected for less than half the time period
Winds: from the S (180 degrees) at 12 MPH (10 knots; 5.1 m/s)
Visibility: missing
Ceiling: unknown
Clouds: missing
Weather: no significant weather forecast for this period

 AIRPORT MAP

 RUNWAY INFORMATION
Runway 02 Runway length 7546 ft Runway width 148 ft
Runway elevation 68 ft Runway displaced threshold 0 ft Runway heading 21
Runway 20 Runway length 7546 ft Runway width 148 ft
Runway elevation 93 ft Runway displaced threshold 0 ft Runway heading 201

 AIRPORT FREQUENCIES
Type APP Name APP Frequency 128.5 MHZ
Type GND Name GND Frequency 121.6 MHZ
Type TWR Name TWR Frequency 118.55 MHZ

 AIRPORT NEAR NAVIGATION AIDS
Type NDB Name Jerez Frequency 433 KHZ
Type VOR-DME Name Jerez Frequency 113000 KHZ





Powered by Virtual Airlines Manager